This is the latest recevied weather packets stored in our database for station/object SP5IZJ-2. If no packets are shown the sender has not sent any weather packets the latest 10 day(s).
| Time | Temp. | Humidity | Pressure | Rain* | Wind** | Luminosity | Snow |
|---|---|---|---|---|---|---|---|
| 1777843254 | 12.78° C | 48% | 1006 hPa | 0 mm | - | - | - |
| 1777842413 | 12.78° C | 48% | 1006.3 hPa | 0 mm | - | - | - |
| 1777841155 | 13.33° C | 45% | 1006.1 hPa | 0 mm | - | - | - |
| 1777840738 | 13.89° C | 45% | 1006 hPa | 0 mm | - | - | - |
| 1777839894 | 14.44° C | 45% | 1006.1 hPa | 0 mm | - | - | - |
| 1777839054 | 14.44° C | 44% | 1005.9 hPa | 0 mm | - | - | - |
| 1777837794 | 15° C | 43% | 1005.9 hPa | 0 mm | - | - | - |
| 1777836115 | 15.56° C | 41% | 1006.2 hPa | 0 mm | - | - | - |
| 1777835700 | 15.56° C | 41% | 1006 hPa | 0 mm | - | - | - |
| 1777834858 | 16.11° C | 40% | 1005.9 hPa | 0 mm | - | - | - |
| 1777832768 | 17.78° C | 35% | 1005.9 hPa | 0 mm | - | - | - |
| 1777831917 | 18.89° C | 32% | 1005.6 hPa | 0 mm | - | - | - |
| 1777831542 | 19.44° C | 31% | 1005.7 hPa | 0 mm | - | - | - |
| 1777830240 | 22.78° C | 28% | 1005.5 hPa | 0 mm | - | - | - |
| 1777828563 | 27.78° C | 23% | 1005.5 hPa | 0 mm | - | - | - |
| 1777828145 | 27.78° C | 23% | 1005.5 hPa | 0 mm | - | - | - |
| 1777827719 | 28.33° C | 23% | 1005.5 hPa | 0 mm | - | - | - |
| 1777826039 | 29.44° C | 22% | 1005.6 hPa | 0 mm | - | - | - |
| 1777822261 | 28.89° C | 21% | 1006 hPa | 0 mm | - | - | - |
| 1777818902 | 28.89° C | 21% | 1006.5 hPa | 0 mm | - | - | - |
| 1777818063 | 28.89° C | 21% | 1006.8 hPa | 0 mm | - | - | - |
| 1777815124 | 28.33° C | 21% | 1007.2 hPa | 0 mm | - | - | - |
| 1777813025 | 28.89° C | 22% | 1007.5 hPa | 0 mm | - | - | - |
| 1777810086 | 27.78° C | 22% | 1008 hPa | 0 mm | - | - | - |
| 1777809671 | 27.22° C | 23% | 1007.9 hPa | 0 mm | - | - | - |
* Rain latest hour (hover to see other rain measurements)
** Current wind speed in m/s (hover to see current wind gust speed)